Island, Texas
Current Conditions -  °F | °C
As of 4:52 AM on Sunday 23 Nov 2014 (Local Time) from KGLS Reporting Station
Clear Clear  
Wind Chill: 62°   Ceiling: Unl
Heat Index: 62°   Visibility: 10mi
Dew Point: 60°   Wind: 10mph
Humidity: 93%   Direction: 200°SSW
Pressure: 29.68"   Gusts: NA
Location:  29.3093°N, 94.7816°W
Report Text: KGLS 231052Z AUTO 20009KT 10SM CLR 17/16 A2968 RMK AO2 SLP049 T01670156
Loading
Personal Weather Stations






























Interactive Weather Map New forecast layout! Learn more

10-Day Weather Forecast

Advertisements
Track Severe Weather on mobile